Time;durP1;ratioP1;P1;durP2;ratioP2;P2;SDS_P1;SDS_P2;PMS_P1;PMS_P2;Temp;Humidity;BMP_temperature;BMP_pressure;BME280_temperature;BME280_humidity;BME280_pressure;Samples;Min_cycle;Max_cycle;Signal;HPM_P1;HPM_P2
2024/01/11 00:02:20;;;;;;;6.88;4.65;;;;;;;17.91;29.31;103320.16;5043108;28;20032;-39
2024/01/11 00:04:45;;;;;;;9.95;4.85;;;;;;;17.89;29.17;103313.19;5021574;28;20059;-39
2024/01/11 00:07:11;;;;;;;7.07;4.70;;;;;;;17.85;29.22;103318.28;5036285;28;20523;-39
2024/01/11 00:09:41;;;;;;;8.63;4.32;;;;;;;17.83;29.33;103314.91;5040738;28;20128;-40
2024/01/11 00:12:06;;;;;;;8.18;5.65;;;;;;;17.81;29.40;103322.50;5038477;28;20351;-41
2024/01/11 00:14:32;;;;;;;8.68;5.00;;;;;;;17.79;29.54;103325.47;5043415;28;20037;-40
2024/01/11 00:16:57;;;;;;;7.18;4.53;;;;;;;17.76;29.42;103316.84;5040996;28;20070;-40
2024/01/11 00:19:22;;;;;;;7.40;4.82;;;;;;;17.74;29.55;103318.94;5044656;28;20020;-40
2024/01/11 00:21:48;;;;;;;6.68;4.63;;;;;;;17.70;29.66;103317.69;5040156;28;20547;-40
2024/01/11 00:24:13;;;;;;;6.85;4.55;;;;;;;17.68;29.50;103311.56;5063466;28;20026;-40
2024/01/11 00:26:39;;;;;;;6.72;4.63;;;;;;;17.64;29.52;103309.28;5042141;28;20441;-40
2024/01/11 00:29:04;;;;;;;6.68;4.88;;;;;;;17.62;29.87;103310.53;5040682;28;20075;-40
2024/01/11 00:31:29;;;;;;;7.68;5.10;;;;;;;17.60;29.64;103315.41;5041570;28;20021;-40
2024/01/11 00:33:55;;;;;;;7.90;5.28;;;;;;;17.56;29.71;103305.91;5040167;28;20430;-39
2024/01/11 00:36:20;;;;;;;7.65;4.90;;;;;;;17.54;29.63;103311.59;5040856;28;20083;-39
2024/01/11 00:38:46;;;;;;;7.78;4.90;;;;;;;17.51;29.91;103314.78;5040320;28;20485;-40
2024/01/11 00:41:11;;;;;;;6.93;4.75;;;;;;;17.49;29.92;103316.88;5042728;28;20040;-40
2024/01/11 00:43:36;;;;;;;7.00;4.68;;;;;;;17.47;29.86;103319.84;5043321;28;20477;-39
2024/01/11 00:46:02;;;;;;;7.35;4.93;;;;;;;17.43;29.89;103317.75;5043589;28;20036;-41
2024/01/11 00:48:27;;;;;;;5.63;4.45;;;;;;;17.43;29.97;103317.75;5039117;28;20025;-39
2024/01/11 00:50:52;;;;;;;8.13;5.50;;;;;;;17.41;30.11;103315.22;5041527;28;20033;-40
2024/01/11 00:53:18;;;;;;;7.72;5.28;;;;;;;17.39;29.92;103324.72;5040757;28;20063;-39
2024/01/11 00:55:43;;;;;;;10.57;5.18;;;;;;;17.36;30.01;103322.38;5045290;28;20025;-40
2024/01/11 00:58:09;;;;;;;9.15;5.47;;;;;;;17.32;30.17;103327.44;5040074;28;20417;-41
2024/01/11 01:00:34;;;;;;;8.30;5.40;;;;;;;17.30;30.20;103324.06;5055074;28;20056;-39
2024/01/11 01:02:59;;;;;;;6.28;4.90;;;;;;;17.28;30.18;103321.56;5041469;28;20025;-39
2024/01/11 01:05:25;;;;;;;6.55;4.80;;;;;;;17.26;30.09;103320.09;5041561;28;20863;-40
2024/01/11 01:07:50;;;;;;;10.68;4.82;;;;;;;17.23;30.11;103317.75;5038370;28;20080;-40
2024/01/11 01:10:15;;;;;;;9.65;5.32;;;;;;;17.21;30.15;103317.97;5041393;28;20058;-39
2024/01/11 01:12:41;;;;;;;7.25;5.03;;;;;;;17.20;30.31;103309.97;5055637;28;20438;-39
2024/01/11 01:15:07;;;;;;;7.13;4.97;;;;;;;17.17;30.17;103322.19;5056646;28;20048;-39
2024/01/11 01:17:32;;;;;;;7.72;5.32;;;;;;;17.16;30.27;103320.50;5040919;28;20032;-39
2024/01/11 01:19:57;;;;;;;7.50;5.32;;;;;;;17.13;30.29;103320.91;5041323;28;20039;-39
2024/01/11 01:22:23;;;;;;;9.48;5.40;;;;;;;17.10;30.19;103333.16;5041637;28;20115;-40
2024/01/11 01:24:48;;;;;;;7.47;4.75;;;;;;;17.08;30.43;103329.78;5044300;28;20884;-40
2024/01/11 01:27:13;;;;;;;9.80;5.80;;;;;;;17.05;30.31;103332.94;5045031;28;20032;-40
2024/01/11 01:29:39;;;;;;;6.00;4.90;;;;;;;17.04;30.56;103339.47;5041072;28;20036;-40
2024/01/11 01:32:07;;;;;;;7.90;5.10;;;;;;;17.01;30.41;103345.38;5039702;28;20036;-40
2024/01/11 01:34:33;;;;;;;7.28;5.57;;;;;;;16.98;30.43;103335.69;5040798;28;20020;-40
2024/01/11 01:36:58;;;;;;;7.10;5.13;;;;;;;16.97;30.33;103338.59;5039662;28;20040;-40
2024/01/11 01:39:23;;;;;;;7.88;5.28;;;;;;;16.96;30.36;103343.25;5040037;28;20021;-40
2024/01/11 01:41:49;;;;;;;9.65;4.85;;;;;;;16.94;30.37;103348.09;5039809;28;20060;-40
2024/01/11 01:44:14;;;;;;;7.18;5.25;;;;;;;16.94;30.49;103350.00;5039201;28;20091;-40
2024/01/11 01:46:39;;;;;;;7.10;5.20;;;;;;;16.91;30.40;103351.22;5038227;28;20517;-40
2024/01/11 01:49:05;;;;;;;7.22;4.88;;;;;;;16.89;30.43;103344.28;5039711;28;20040;-40
2024/01/11 01:51:31;;;;;;;8.20;5.35;;;;;;;16.88;30.42;103353.53;5038727;28;20100;-39
2024/01/11 01:53:57;;;;;;;8.40;5.20;;;;;;;16.87;30.51;103351.84;5039563;28;20559;-39
2024/01/11 01:56:23;;;;;;;8.02;5.20;;;;;;;16.86;30.57;103359.25;5039130;28;20017;-40
2024/01/11 01:58:51;;;;;;;8.85;5.68;;;;;;;16.83;30.40;103354.16;5040449;28;20470;-40
2024/01/11 02:01:17;;;;;;;9.23;5.38;;;;;;;16.81;30.48;103359.00;5038547;28;20174;-40
2024/01/11 02:03:43;;;;;;;8.38;5.18;;;;;;;16.79;30.59;103363.88;5039897;28;20111;-40
2024/01/11 02:06:08;;;;;;;7.47;5.13;;;;;;;16.78;30.63;103360.25;5039973;28;20079;-40
2024/01/11 02:08:34;;;;;;;6.05;4.68;;;;;;;16.75;30.44;103362.56;5039171;28;20071;-39
2024/01/11 02:11:00;;;;;;;8.50;5.13;;;;;;;16.75;30.58;103359.84;5035458;28;20422;-39
2024/01/11 02:13:25;;;;;;;7.63;5.40;;;;;;;16.74;30.54;103360.88;5038430;28;20056;-39
2024/01/11 02:15:51;;;;;;;7.22;4.60;;;;;;;16.72;30.64;103355.63;5047459;28;20065;-39
2024/01/11 02:18:16;;;;;;;7.68;5.53;;;;;;;16.70;30.64;103365.94;5039001;28;20525;-40
2024/01/11 02:20:41;;;;;;;6.20;4.80;;;;;;;16.68;30.60;103365.31;5037524;28;20671;-40
2024/01/11 02:23:09;;;;;;;7.38;5.72;;;;;;;16.65;30.59;103368.44;5039234;28;20407;-39
2024/01/11 02:25:34;;;;;;;7.90;5.45;;;;;;;16.63;30.81;103363.19;5038716;28;20605;-38
2024/01/11 02:28:00;;;;;;;7.18;5.53;;;;;;;16.64;30.65;103366.75;5040625;28;20029;-40
2024/01/11 02:30:25;;;;;;;7.38;5.25;;;;;;;16.61;30.89;103353.50;5040138;28;20025;-40
2024/01/11 02:32:52;;;;;;;8.57;5.63;;;;;;;16.60;30.74;103365.47;5044180;28;20112;-40
2024/01/11 02:35:18;;;;;;;10.45;5.82;;;;;;;16.58;30.67;103368.44;5043563;28;20303;-40
2024/01/11 02:37:44;;;;;;;8.90;5.82;;;;;;;16.57;30.82;103374.97;5040264;28;20037;-39
2024/01/11 02:40:10;;;;;;;9.45;5.20;;;;;;;16.54;30.71;103375.34;5039754;28;20453;-39
2024/01/11 02:42:36;;;;;;;6.38;4.93;;;;;;;16.53;30.73;103374.53;5037915;28;20067;-39
2024/01/11 02:45:03;;;;;;;7.63;5.47;;;;;;;16.53;30.76;103368.22;5041956;28;20139;-39
2024/01/11 02:47:28;;;;;;;9.88;5.70;;;;;;;16.50;30.84;103377.69;5038055;28;20040;-39
2024/01/11 02:49:54;;;;;;;8.38;5.13;;;;;;;16.48;30.77;103371.56;5041527;28;20029;-39
2024/01/11 02:52:19;;;;;;;7.93;5.53;;;;;;;16.47;30.75;103372.59;5043177;28;20067;-38
2024/01/11 02:54:45;;;;;;;7.95;5.72;;;;;;;16.46;30.88;103365.44;5042181;28;20035;-39
2024/01/11 02:57:10;;;;;;;8.15;5.53;;;;;;;16.45;30.85;103373.88;5044084;28;20071;-39
2024/01/11 02:59:36;;;;;;;10.90;5.57;;;;;;;16.44;30.85;103383.13;5027104;28;20136;-39
2024/01/11 03:02:01;;;;;;;8.18;5.53;;;;;;;16.41;30.87;103376.16;5047012;28;20021;-39
2024/01/11 03:04:27;;;;;;;8.55;6.13;;;;;;;16.39;30.86;103371.94;5075959;28;20025;-40
2024/01/11 03:06:52;;;;;;;8.30;5.82;;;;;;;16.35;30.90;103364.13;5040574;28;20056;-39
2024/01/11 03:09:17;;;;;;;8.82;5.95;;;;;;;16.33;30.90;103355.31;5042866;28;20049;-40
2024/01/11 03:11:43;;;;;;;7.55;5.43;;;;;;;16.33;30.76;103365.38;5040836;28;20494;-40
2024/01/11 03:14:08;;;;;;;8.88;5.90;;;;;;;16.30;30.92;103361.16;5043729;28;20033;-39
2024/01/11 03:16:34;;;;;;;7.72;5.63;;;;;;;16.30;31.28;103354.88;5045315;28;20091;-39
2024/01/11 03:18:59;;;;;;;7.90;5.57;;;;;;;16.30;30.96;103357.59;5043461;28;20131;-38
2024/01/11 03:21:25;;;;;;;9.02;5.85;;;;;;;16.29;30.96;103364.13;5043255;28;20115;-39
2024/01/11 03:23:50;;;;;;;9.98;6.65;;;;;;;16.26;30.87;103359.91;5042839;28;20416;-39
2024/01/11 03:26:16;;;;;;;7.85;5.80;;;;;;;16.27;30.97;103358.00;5058500;28;20253;-39
2024/01/11 03:28:42;;;;;;;7.80;5.97;;;;;;;16.25;30.87;103357.34;5041954;28;20040;-41
2024/01/11 03:31:09;;;;;;;8.18;5.55;;;;;;;16.23;30.97;103354.81;5042637;28;20044;-39
2024/01/11 03:33:34;;;;;;;9.63;5.97;;;;;;;16.23;30.95;103365.78;5041817;28;20025;-39
2024/01/11 03:35:59;;;;;;;8.30;5.85;;;;;;;16.21;31.06;103362.41;5043054;28;20032;-39
2024/01/11 03:38:25;;;;;;;9.70;6.03;;;;;;;16.20;31.13;103369.75;5043159;28;20140;-39
2024/01/11 03:40:51;;;;;;;9.73;5.60;;;;;;;16.18;31.11;103380.06;5043668;28;20032;-39
2024/01/11 03:43:17;;;;;;;8.88;5.30;;;;;;;16.17;30.77;103377.53;5040549;28;20025;-39
2024/01/11 03:45:43;;;;;;;9.15;5.68;;;;;;;16.16;31.12;103382.16;5049150;28;20024;-41
2024/01/11 03:48:08;;;;;;;10.48;6.28;;;;;;;16.15;31.09;103382.34;5041857;28;20086;-38
2024/01/11 03:50:34;;;;;;;8.40;6.07;;;;;;;16.11;31.02;103381.94;5039914;28;20068;-40
2024/01/11 03:52:59;;;;;;;7.70;5.60;;;;;;;16.12;31.09;103377.31;5041582;28;20609;-38
2024/01/11 03:55:24;;;;;;;8.93;5.85;;;;;;;16.11;31.05;103367.41;5040533;28;20108;-40
2024/01/11 03:57:51;;;;;;;12.70;6.30;;;;;;;16.08;31.15;103363.19;5042828;28;20044;-39
2024/01/11 04:00:16;;;;;;;8.13;6.28;;;;;;;16.09;31.14;103367.59;5042266;28;20039;-39
2024/01/11 04:02:42;;;;;;;8.77;5.82;;;;;;;16.09;30.98;103374.94;5052000;28;20032;-39
2024/01/11 04:05:07;;;;;;;8.80;6.00;;;;;;;16.07;31.17;103371.59;5042894;28;20037;-39
2024/01/11 04:07:33;;;;;;;9.80;6.13;;;;;;;16.09;31.23;103369.47;5073051;28;20163;-40
2024/01/11 04:10:02;;;;;;;8.73;5.78;;;;;;;16.15;31.13;103377.75;5042031;28;20032;-40
2024/01/11 04:12:27;;;;;;;8.98;5.97;;;;;;;16.25;31.04;103379.25;5041174;28;20478;-39
2024/01/11 04:14:52;;;;;;;7.65;5.70;;;;;;;16.34;30.92;103384.34;5041944;28;20031;-39
2024/01/11 04:17:18;;;;;;;8.55;5.97;;;;;;;16.46;30.84;103387.34;5038973;28;20540;-40
2024/01/11 04:19:43;;;;;;;7.32;5.78;;;;;;;16.55;30.86;103376.22;5043563;28;20041;-39
2024/01/11 04:22:08;;;;;;;8.70;5.45;;;;;;;16.64;30.76;103378.56;5040697;28;20053;-39
2024/01/11 04:24:34;;;;;;;8.20;5.18;;;;;;;16.73;30.71;103384.69;5040407;28;20734;-38
2024/01/11 04:26:59;;;;;;;7.93;5.88;;;;;;;16.82;30.67;103390.81;5045460;28;20509;-40
2024/01/11 04:29:24;;;;;;;9.48;6.28;;;;;;;16.90;30.51;103384.31;5040740;28;20056;-39
2024/01/11 04:31:50;;;;;;;7.13;5.55;;;;;;;16.96;30.58;103398.06;5043591;28;20020;-39
2024/01/11 04:34:15;;;;;;;7.18;5.65;;;;;;;17.05;30.63;103404.16;5041564;28;20496;-39
2024/01/11 04:36:41;;;;;;;7.15;5.57;;;;;;;17.11;30.55;103400.59;5039790;28;20025;-40
2024/01/11 04:39:07;;;;;;;10.85;5.65;;;;;;;17.19;30.63;103405.06;5039890;28;20024;-40
2024/01/11 04:41:35;;;;;;;9.43;5.65;;;;;;;17.26;30.54;103407.78;5041481;28;20387;-39
2024/01/11 04:44:01;;;;;;;8.52;5.75;;;;;;;17.31;30.54;103411.59;5043181;28;20136;-39
2024/01/11 04:46:26;;;;;;;9.50;6.15;;;;;;;17.39;30.42;103412.44;5056777;28;20029;-40
2024/01/11 04:48:53;;;;;;;8.05;5.78;;;;;;;17.45;30.54;103417.09;5041066;28;20028;-40
2024/01/11 04:51:19;;;;;;;6.07;5.47;;;;;;;17.53;30.52;103419.59;5039501;28;20033;-38
2024/01/11 04:53:45;;;;;;;6.78;5.43;;;;;;;17.59;30.53;103407.78;5040222;28;20140;-41
2024/01/11 04:56:11;;;;;;;10.38;5.53;;;;;;;17.66;30.56;103407.78;5042006;28;20102;-40
2024/01/11 04:58:39;;;;;;;6.45;5.00;;;;;;;17.76;30.46;103419.16;5042139;28;20024;-40
2024/01/11 05:01:14;;;;;;;6.97;5.10;;;;;;;17.84;30.40;103417.25;5040732;28;20962;-40
2024/01/11 05:03:40;;;;;;;6.95;5.35;;;;;;;17.90;30.51;103420.00;5041153;28;20287;-40
2024/01/11 05:06:06;;;;;;;7.13;5.35;;;;;;;17.96;30.35;103424.66;5040802;28;20591;-40
2024/01/11 05:08:31;;;;;;;6.65;4.97;;;;;;;18.04;30.45;103426.31;5040120;28;20045;-40
2024/01/11 05:10:56;;;;;;;6.20;4.40;;;;;;;18.10;30.54;103432.88;5042160;28;20067;-40
2024/01/11 05:13:22;;;;;;;7.53;5.05;;;;;;;18.15;30.26;103424.81;5041605;28;20090;-40
2024/01/11 05:15:47;;;;;;;7.18;5.32;;;;;;;18.20;30.20;103422.28;5040836;28;20064;-41
2024/01/11 05:18:13;;;;;;;6.40;5.10;;;;;;;18.26;30.25;103437.03;5041037;28;20500;-41
2024/01/11 05:20:38;;;;;;;6.57;4.80;;;;;;;18.31;30.30;103431.75;5038192;28;20535;-41
2024/01/11 05:23:04;;;;;;;7.38;5.30;;;;;;;18.36;30.25;103436.59;5041206;28;20108;-40
2024/01/11 05:25:33;;;;;;;8.50;5.07;;;;;;;18.39;30.20;103425.16;5041255;28;20037;-40
2024/01/11 05:28:02;;;;;;;5.72;4.55;;;;;;;18.42;30.19;103414.59;5044258;28;20024;-41
2024/01/11 05:30:27;;;;;;;6.80;5.38;;;;;;;18.48;30.10;103418.38;5041321;28;20060;-41
2024/01/11 05:32:53;;;;;;;7.18;5.20;;;;;;;18.50;30.21;103421.72;5040458;28;20053;-40
2024/01/11 05:35:19;;;;;;;7.60;5.03;;;;;;;18.53;30.06;103421.31;5040039;28;20029;-40
2024/01/11 05:37:44;;;;;;;7.00;5.13;;;;;;;18.58;30.18;103426.16;5042661;28;20024;-41
2024/01/11 05:40:10;;;;;;;6.75;5.38;;;;;;;18.60;30.02;103429.50;5039542;28;20040;-40
2024/01/11 05:42:35;;;;;;;6.82;4.90;;;;;;;18.63;30.10;103429.06;5040761;28;20112;-39
2024/01/11 05:45:00;;;;;;;6.30;4.72;;;;;;;18.65;30.14;103426.97;5039134;28;20489;-40
2024/01/11 05:47:26;;;;;;;6.55;4.63;;;;;;;18.67;29.90;103427.56;5044700;28;20043;-40
2024/01/11 05:49:51;;;;;;;8.30;5.15;;;;;;;18.68;30.06;103437.50;5046647;28;20571;-40
2024/01/11 05:52:17;;;;;;;8.27;5.20;;;;;;;18.67;30.09;103427.56;5040538;28;20116;-38
2024/01/11 05:54:42;;;;;;;7.78;5.20;;;;;;;18.64;30.04;103430.78;5039498;28;20028;-40
2024/01/11 05:57:08;;;;;;;5.60;4.85;;;;;;;18.63;30.09;103423.59;5040651;28;20059;-41
2024/01/11 05:59:33;;;;;;;8.93;5.57;;;;;;;18.60;30.05;103416.63;5039349;28;20112;-40
2024/01/11 06:02:00;;;;;;;8.32;5.07;;;;;;;18.58;30.17;103428.91;5040720;28;20090;-40
2024/01/11 06:04:26;;;;;;;7.75;5.57;;;;;;;18.54;30.19;103412.00;5040873;28;20137;-41
2024/01/11 06:06:51;;;;;;;9.43;5.53;;;;;;;18.52;30.17;103416.88;5039737;28;20355;-39
2024/01/11 06:09:17;;;;;;;6.45;5.05;;;;;;;18.49;30.21;103411.81;5040752;28;20049;-38
2024/01/11 06:11:42;;;;;;;8.02;5.50;;;;;;;18.47;30.23;103424.94;5038520;28;20146;-39
2024/01/11 06:14:08;;;;;;;7.03;5.60;;;;;;;18.46;30.34;103430.66;5039330;28;20037;-41
2024/01/11 06:16:33;;;;;;;7.32;5.68;;;;;;;18.43;30.19;103441.00;5037939;28;20029;-40
2024/01/11 06:18:59;;;;;;;6.82;5.30;;;;;;;18.42;30.42;103435.72;5038011;28;20028;-40
2024/01/11 06:21:24;;;;;;;8.48;5.72;;;;;;;18.41;30.34;103423.88;5039615;28;20032;-41
2024/01/11 06:23:49;;;;;;;7.80;6.03;;;;;;;18.41;30.27;103425.78;5040581;28;20534;-42
2024/01/11 06:26:15;;;;;;;8.13;5.65;;;;;;;18.40;30.43;103427.69;5038849;28;20116;-40
2024/01/11 06:28:40;;;;;;;10.00;6.13;;;;;;;18.39;30.23;103445.25;5042852;28;20025;-39
2024/01/11 06:31:06;;;;;;;7.88;5.80;;;;;;;18.38;30.38;103457.28;5040257;28;20032;-41
2024/01/11 06:33:32;;;;;;;11.07;6.10;;;;;;;18.39;30.44;103458.09;5038813;28;20076;-41
2024/01/11 06:35:58;;;;;;;7.28;5.75;;;;;;;18.39;30.38;103466.34;5038346;28;20274;-40
2024/01/11 06:38:23;;;;;;;7.70;5.35;;;;;;;18.37;30.45;103473.94;5038105;28;20028;-40
2024/01/11 06:40:49;;;;;;;6.95;5.47;;;;;;;18.38;30.52;103484.75;5023687;28;20388;-40
2024/01/11 06:43:15;;;;;;;7.40;5.35;;;;;;;18.36;30.50;103491.50;5039322;28;20064;-42
2024/01/11 06:45:42;;;;;;;25.85;6.68;;;;;;;18.36;30.44;103486.84;5044466;28;20056;-36
2024/01/11 06:48:08;;;;;;;208.75;12.05;;;;;;;18.40;30.95;103481.75;5039154;28;20042;-40
2024/01/11 06:50:33;;;;;;;9.73;5.53;;;;;;;18.43;31.19;103497.81;5040478;28;20064;-41
2024/01/11 06:52:59;;;;;;;12.82;6.45;;;;;;;18.48;31.11;103500.75;5042507;28;20028;-39
2024/01/11 06:55:25;;;;;;;9.57;6.20;;;;;;;18.52;30.93;103510.25;5040447;28;20190;-39
2024/01/11 06:57:50;;;;;;;13.88;6.30;;;;;;;18.57;30.78;103518.69;5045859;28;20122;-40
2024/01/11 07:00:16;;;;;;;8.52;6.30;;;;;;;18.63;30.74;103505.16;5039677;28;20036;-39
2024/01/11 07:02:41;;;;;;;8.07;6.70;;;;;;;18.65;30.46;103514.88;5037904;28;20300;-39
2024/01/11 07:05:07;;;;;;;13.70;6.60;;;;;;;18.68;30.63;103513.59;5037388;28;20505;-40
2024/01/11 07:07:33;;;;;;;10.15;6.40;;;;;;;18.74;30.68;103523.72;5038984;28;20045;-39
2024/01/11 07:09:58;;;;;;;15.75;6.25;;;;;;;18.79;31.05;103509.31;5038387;28;20040;-41
2024/01/11 11:15:45;;;;;;;23.80;5.70;;;;;;;18.34;33.25;103644.63;5053552;28;20184;-37
2024/01/11 11:18:13;;;;;;;94.32;7.47;;;;;;;18.40;33.37;103641.84;5057002;28;20036;-34
2024/01/11 11:20:39;;;;;;;12.55;6.13;;;;;;;18.44;33.38;103629.41;5054790;28;20020;-33
2024/01/11 11:23:06;;;;;;;9.18;5.35;;;;;;;18.50;33.36;103624.13;5041523;28;20040;-36
2024/01/11 11:25:31;;;;;;;9.52;6.45;;;;;;;18.54;33.23;103620.75;5054973;28;20513;-34
2024/01/11 11:27:58;;;;;;;13.65;6.28;;;;;;;18.60;33.29;103613.53;5054488;28;20210;-35
2024/01/11 11:30:24;;;;;;;9.07;5.80;;;;;;;18.63;33.23;103609.53;5054379;28;20483;-36
2024/01/11 11:32:49;;;;;;;9.63;6.00;;;;;;;18.67;33.17;103603.38;5054105;28;20040;-36
2024/01/11 11:35:14;;;;;;;8.90;6.07;;;;;;;18.71;32.96;103610.16;5054207;28;20033;-36
2024/01/11 11:37:40;;;;;;;13.45;6.47;;;;;;;18.75;32.86;103613.31;5054199;28;20041;-36
2024/01/11 11:40:07;;;;;;;8.57;5.82;;;;;;;18.75;32.88;103616.88;5052271;28;20029;-36
2024/01/11 11:42:34;;;;;;;9.50;5.95;;;;;;;18.79;32.88;103609.06;5056108;28;20028;-36
2024/01/11 11:44:59;;;;;;;10.70;6.00;;;;;;;18.80;32.87;103605.25;5055044;28;20027;-36
2024/01/11 11:47:33;;;;;;;7.78;5.60;;;;;;;18.82;32.94;103599.53;5054925;28;20032;-36
2024/01/11 11:50:09;;;;;;;6.70;5.00;;;;;;;18.85;32.73;103599.97;5054425;28;20044;-36
2024/01/11 11:52:38;;;;;;;9.80;5.60;;;;;;;18.88;32.85;103591.28;5056350;28;20028;-36
2024/01/11 11:55:05;;;;;;;8.85;4.95;;;;;;;18.92;32.93;103598.06;5054057;28;20031;-36
2024/01/11 11:57:31;;;;;;;5.88;4.78;;;;;;;18.97;32.82;103600.16;5056036;28;20505;-36
2024/01/11 11:59:59;;;;;;;6.85;4.97;;;;;;;19.00;32.87;103590.66;5056224;28;20029;-36
2024/01/11 12:02:26;;;;;;;6.90;5.07;;;;;;;19.04;32.67;103584.50;5054054;28;20028;-35
2024/01/11 12:04:53;;;;;;;7.22;5.32;;;;;;;19.08;32.79;103574.75;5055335;28;20461;-36
2024/01/11 12:07:20;;;;;;;9.65;5.55;;;;;;;19.11;32.83;103578.97;5055041;28;20454;-36
2024/01/11 12:09:46;;;;;;;11.07;6.15;;;;;;;19.15;32.64;103573.88;5055764;28;20100;-36
2024/01/11 12:12:12;;;;;;;15.15;6.05;;;;;;;19.17;33.18;103564.34;5050252;28;20805;-36
2024/01/11 12:14:38;;;;;;;17.20;6.82;;;;;;;19.20;32.97;103568.56;5050694;28;20549;-36
2024/01/11 12:17:03;;;;;;;13.38;6.50;;;;;;;19.21;32.92;103556.50;5051437;28;20108;-37
2024/01/11 12:19:29;;;;;;;15.45;5.75;;;;;;;19.21;32.81;103553.75;5052121;28;20123;-38
2024/01/11 12:21:54;;;;;;;19.27;6.55;;;;;;;19.20;33.03;103555.66;5049350;28;20024;-39
2024/01/11 12:24:21;;;;;;;16.88;6.28;;;;;;;19.18;32.86;103552.28;5054470;28;20060;-39
2024/01/11 12:26:47;;;;;;;18.23;7.18;;;;;;;19.16;32.84;103554.41;5043504;28;20239;-39
2024/01/11 12:29:13;;;;;;;11.50;6.25;;;;;;;19.13;32.93;103551.25;5040894;28;20549;-39
2024/01/11 12:31:38;;;;;;;12.48;6.20;;;;;;;19.08;32.97;103547.25;5038674;28;20028;-39
2024/01/11 12:34:04;;;;;;;12.32;6.05;;;;;;;19.03;33.00;103533.34;5035346;28;20060;-38
2024/01/11 12:36:29;;;;;;;16.63;6.55;;;;;;;19.00;32.79;103533.75;5039034;28;20074;-38
2024/01/11 12:38:55;;;;;;;11.90;6.15;;;;;;;18.98;33.08;103532.28;5036846;28;20033;-40
2024/01/11 12:41:24;;;;;;;13.30;5.53;;;;;;;18.95;33.09;103539.06;5041483;28;20099;-38
2024/01/11 12:43:49;;;;;;;10.13;5.28;;;;;;;18.94;33.24;103536.56;5038994;28;20020;-38
2024/01/11 12:46:15;;;;;;;10.90;5.65;;;;;;;18.93;33.21;103538.44;5042729;28;20017;-39
2024/01/11 12:48:41;;;;;;;10.13;5.20;;;;;;;18.94;33.36;103536.56;5042539;28;20509;-39
2024/01/11 12:51:07;;;;;;;8.70;4.97;;;;;;;18.92;33.21;103532.09;5039217;28;20559;-39
2024/01/11 12:53:32;;;;;;;9.38;5.18;;;;;;;18.91;33.33;103527.66;5040076;28;20029;-39
2024/01/11 12:56:10;;;;;;;7.60;4.72;;;;;;;18.92;33.28;103531.28;5043481;28;20086;-39
2024/01/11 12:58:39;;;;;;;8.10;4.88;;;;;;;18.93;33.29;103538.44;5043053;28;20444;-39
2024/01/11 13:01:07;;;;;;;6.65;4.60;;;;;;;18.91;33.27;103540.59;5039665;28;20032;-38
2024/01/11 13:03:33;;;;;;;6.28;4.25;;;;;;;18.91;33.45;103527.66;5041976;28;20036;-39
2024/01/11 13:05:58;;;;;;;7.32;4.88;;;;;;;18.90;33.43;103528.69;5035755;28;20033;-35
2024/01/11 13:08:25;;;;;;;5.80;4.03;;;;;;;18.90;33.35;103530.63;5043115;28;20107;-35
2024/01/11 13:10:50;;;;;;;9.52;4.55;;;;;;;18.89;33.50;103526.16;5040582;28;20033;-35
2024/01/11 13:13:15;;;;;;;6.88;4.28;;;;;;;18.85;33.62;103525.75;5037895;28;20090;-34
2024/01/11 13:15:41;;;;;;;9.45;4.63;;;;;;;18.85;33.60;103525.75;5035856;28;20490;-35
2024/01/11 13:18:06;;;;;;;6.38;3.97;;;;;;;18.83;33.67;103522.38;5038711;28;20029;-35
2024/01/11 13:20:32;;;;;;;5.40;4.05;;;;;;;18.81;33.58;103526.41;5042256;28;20732;-35
2024/01/11 13:23:20;;;;;;;7.55;4.60;;;;;;;18.77;33.60;103515.88;5039036;28;20112;-35
2024/01/11 13:25:52;;;;;;;6.72;4.13;;;;;;;18.76;33.69;103508.69;5033332;28;20029;-35
2024/01/11 13:28:18;;;;;;;8.55;4.35;;;;;;;18.73;33.79;103506.34;5036660;28;20869;-36
2024/01/11 13:30:45;;;;;;;9.57;4.78;;;;;;;18.72;33.81;103499.22;5038908;28;20036;-35
2024/01/11 13:33:11;;;;;;;5.68;4.05;;;;;;;18.69;33.87;103496.06;5042249;28;20350;-36
2024/01/11 13:35:37;;;;;;;17.50;4.63;;;;;;;18.66;34.01;103490.97;5036939;28;20078;-36
2024/01/11 13:38:03;;;;;;;7.78;4.43;;;;;;;18.67;34.06;103489.91;5041956;28;20033;-39
2024/01/11 13:40:29;;;;;;;6.32;4.30;;;;;;;18.67;34.13;103485.25;5042197;28;20062;-37
2024/01/11 13:42:58;;;;;;;6.57;3.83;;;;;;;18.69;34.32;103493.31;5037114;28;20024;-36
2024/01/11 13:45:24;;;;;;;9.75;3.85;;;;;;;18.72;34.18;103488.22;5039174;28;20391;-36
2024/01/11 13:47:50;;;;;;;4.63;3.75;;;;;;;18.76;34.10;103496.84;5038238;28;20060;-36
2024/01/11 13:50:16;;;;;;;5.70;3.85;;;;;;;18.79;34.14;103490.91;5044261;28;20033;-38
2024/01/11 13:52:43;;;;;;;5.30;3.50;;;;;;;18.84;34.06;103493.84;5039209;28;20040;-37
2024/01/11 13:55:11;;;;;;;4.88;3.70;;;;;;;18.89;34.21;103498.69;5038387;28;20021;-38
2024/01/11 13:57:37;;;;;;;5.63;3.60;;;;;;;18.96;34.05;103498.69;5043241;28;20040;-35
2024/01/11 14:00:04;;;;;;;5.55;3.63;;;;;;;19.01;34.27;103493.41;5039260;28;20037;-35
2024/01/11 14:02:30;;;;;;;3.70;3.22;;;;;;;19.09;34.01;103490.38;5023381;28;20037;-35
2024/01/11 14:04:55;;;;;;;3.83;3.42;;;;;;;19.14;34.06;103487.81;5043052;28;20021;-35
2024/01/11 14:07:20;;;;;;;4.88;3.33;;;;;;;19.19;34.08;103490.75;5041370;28;20319;-35
2024/01/11 14:09:46;;;;;;;7.45;3.50;;;;;;;19.26;33.94;103487.94;5041205;28;20386;-36
2024/01/11 14:12:12;;;;;;;3.75;3.33;;;;;;;19.29;33.98;103489.41;5039655;28;20089;-35
2024/01/11 14:14:37;;;;;;;5.38;3.10;;;;;;;19.31;33.87;103487.28;5040097;28;20490;-35
2024/01/11 14:17:02;;;;;;;5.10;3.33;;;;;;;19.32;33.75;103492.53;5041269;28;20033;-40
2024/01/11 14:19:28;;;;;;;6.20;3.97;;;;;;;19.32;33.84;103483.47;5040129;28;20033;-36
2024/01/11 14:21:53;;;;;;;6.25;3.83;;;;;;;19.32;33.73;103480.72;5042230;28;20458;-36
2024/01/11 14:24:19;;;;;;;5.05;4.10;;;;;;;19.31;33.84;103488.13;5039395;28;20500;-35
2024/01/11 14:26:44;;;;;;;5.10;3.58;;;;;;;19.30;33.72;103483.69;5040877;28;20100;-37
2024/01/11 14:29:10;;;;;;;4.13;3.55;;;;;;;19.30;33.86;103480.09;5039726;28;20497;-36
2024/01/11 14:31:37;;;;;;;4.75;3.70;;;;;;;19.29;33.81;103475.66;5038834;28;20044;-35
2024/01/11 14:34:02;;;;;;;6.05;3.75;;;;;;;19.26;33.76;103476.09;5036612;28;20177;-37
2024/01/11 14:36:28;;;;;;;4.97;4.15;;;;;;;19.24;34.05;103470.84;5039981;28;20025;-37
2024/01/11 14:38:53;;;;;;;12.95;3.95;;;;;;;19.21;34.08;103465.78;5036984;28;20130;-35
2024/01/11 14:41:19;;;;;;;4.90;3.75;;;;;;;19.20;34.01;103466.81;5042551;28;20056;-38
2024/01/11 14:43:46;;;;;;;5.05;3.80;;;;;;;19.22;34.00;103464.72;5038579;28;20027;-39
2024/01/11 14:46:11;;;;;;;5.68;4.13;;;;;;;19.23;33.96;103469.16;5041646;28;20036;-39
2024/01/11 14:48:37;;;;;;;7.00;3.80;;;;;;;19.24;33.95;103466.16;5037643;28;20213;-39
2024/01/11 14:51:02;;;;;;;3.75;3.38;;;;;;;19.26;33.88;103463.19;5039958;28;20035;-39
2024/01/11 14:53:28;;;;;;;4.47;3.40;;;;;;;19.28;34.05;103466.56;5040070;28;20037;-38
2024/01/11 14:55:53;;;;;;;4.35;3.65;;;;;;;19.29;33.95;103459.16;5040702;28;20117;-38
2024/01/11 14:58:18;;;;;;;5.22;3.60;;;;;;;19.28;34.00;103472.06;5039648;28;20031;-38
2024/01/11 15:00:44;;;;;;;6.68;3.70;;;;;;;19.31;33.92;103462.53;5039043;28;20108;-37
2024/01/11 15:03:09;;;;;;;6.47;3.92;;;;;;;19.31;33.97;103454.28;5040169;28;20025;-41
2024/01/11 15:05:36;;;;;;;16.00;3.92;;;;;;;19.33;34.11;103452.16;5040153;28;20126;-42
